Time;durP1;ratioP1;P1;durP2;ratioP2;P2;SDS_P1;SDS_P2;PMS_P1;PMS_P2;Temp;Humidity;BMP_temperature;BMP_pressure;BME280_temperature;BME280_humidity;BME280_pressure;Samples;Min_cycle;Max_cycle;Signal;HPM_P1;HPM_P2
2021/06/21 00:00:18;;;;;;;;;;;;;;;22.35;100.00;99949.91;5006956;28;20197;-72
2021/06/21 00:02:44;;;;;;;;;;;;;;;22.31;100.00;99955.00;4991847;28;20282;-73
2021/06/21 00:05:12;;;;;;;;;;;;;;;22.26;100.00;99951.19;4991899;28;20420;-73
2021/06/21 00:07:38;;;;;;;;;;;;;;;22.23;100.00;99947.81;4991955;28;19984;-72
2021/06/21 00:10:05;;;;;;;;;;;;;;;22.19;100.00;99952.09;4991951;28;20405;-71
2021/06/21 00:12:32;;;;;;;;;;;;;;;22.21;100.00;99957.41;4991666;28;19968;-71
2021/06/21 00:14:59;;;;;;;;;;;;;;;22.16;100.00;99949.75;4991680;28;19926;-71
2021/06/21 00:17:26;;;;;;;;;;;;;;;22.17;100.00;99951.47;4991565;28;19965;-71
2021/06/21 00:19:52;;;;;;;;;;;;;;;22.15;100.00;99944.44;4992216;28;19931;-71
2021/06/21 00:22:19;;;;;;;;;;;;;;;22.19;100.00;99941.03;4995625;28;19961;-71
2021/06/21 00:24:45;;;;;;;;;;;;;;;22.20;100.00;99930.81;4995873;28;19937;-72
2021/06/21 00:27:12;;;;;;;;;;;;;;;22.18;100.00;99916.38;5010891;28;20024;-71
2021/06/21 00:29:38;;;;;;;;;;;;;;;22.15;100.00;99909.34;4995674;28;19940;-70
2021/06/21 00:32:06;;;;;;;;;;;;;;;22.12;100.00;99901.53;4995385;28;20039;-71
2021/06/21 00:34:33;;;;;;;;;;;;;;;22.07;100.00;99898.56;4995603;28;19980;-72
2021/06/21 00:36:59;;;;;;;;;;;;;;;22.05;100.00;99895.19;4995540;28;19973;-71
2021/06/21 00:39:26;;;;;;;;;;;;;;;22.02;100.00;99879.91;5010646;28;20285;-72
2021/06/21 00:41:52;;;;;;;;;;;;;;;22.01;100.00;99871.84;5010345;28;19926;-73
2021/06/21 00:44:18;;;;;;;;;;;;;;;21.98;100.00;99867.59;4995479;28;19929;-71
2021/06/21 00:46:45;;;;;;;;;;;;;;;21.94;100.00;99869.13;4995285;28;19984;-72
2021/06/21 00:49:13;;;;;;;;;;;;;;;21.90;100.00;99857.66;4995198;28;20300;-72
2021/06/21 00:51:40;;;;;;;;;;;;;;;21.88;100.00;99856.16;4994014;28;19962;-72
2021/06/21 00:54:06;;;;;;;;;;;;;;;21.85;100.00;99845.56;4995063;28;19964;-71
2021/06/21 00:56:33;;;;;;;;;;;;;;;21.81;100.00;99839.63;4995026;28;20403;-71
2021/06/21 00:59:00;;;;;;;;;;;;;;;21.80;100.00;99831.56;4995411;28;20385;-71
2021/06/21 01:01:26;;;;;;;;;;;;;;;21.77;100.00;99846.66;4995317;28;19985;-72
2021/06/21 01:03:52;;;;;;;;;;;;;;;21.70;100.00;99851.34;4994510;28;19926;-72
2021/06/21 01:06:20;;;;;;;;;;;;;;;21.65;100.00;99863.06;4995362;28;19980;-71
2021/06/21 01:08:46;;;;;;;;;;;;;;;21.59;100.00;99868.63;4995044;28;19926;-72
2021/06/21 01:11:13;;;;;;;;;;;;;;;21.52;100.00;99863.09;5009906;28;19972;-71
2021/06/21 01:13:56;;;;;;;;;;;;;;;21.50;100.00;99877.13;4994679;28;19995;-72
2021/06/21 01:16:26;;;;;;;;;;;;;;;21.49;100.00;99869.06;4994834;28;20435;-71
2021/06/21 01:18:54;;;;;;;;;;;;;;;21.45;100.00;99876.91;4994911;28;19926;-72
2021/06/21 01:21:39;;;;;;;;;;;;;;;21.41;100.00;99875.66;4993085;28;19976;-71
2021/06/21 01:24:26;;;;;;;;;;;;;;;21.38;100.00;99885.22;4994687;28;19980;-71
2021/06/21 01:26:56;;;;;;;;;;;;;;;21.37;100.00;99899.22;4994539;28;19953;-72
2021/06/21 01:29:30;;;;;;;;;;;;;;;21.33;100.00;99897.97;4994420;28;19976;-72
2021/06/21 01:32:09;;;;;;;;;;;;;;;21.30;100.00;99907.53;4994279;28;19925;-72
2021/06/21 01:34:38;;;;;;;;;;;;;;;21.31;100.00;99913.88;4994329;28;20021;-72
2021/06/21 01:37:05;;;;;;;;;;;;;;;21.28;100.00;99904.13;4994333;28;19980;-72
2021/06/21 01:39:34;;;;;;;;;;;;;;;21.23;100.00;99904.78;4994234;28;20452;-72
2021/06/21 01:42:03;;;;;;;;;;;;;;;21.20;100.00;99899.66;4994104;28;19933;-72
2021/06/21 01:44:31;;;;;;;;;;;;;;;21.18;100.00;99901.81;4993779;28;19957;-72
2021/06/21 01:46:58;;;;;;;;;;;;;;;21.16;100.00;99892.06;4994172;28;19926;-72
2021/06/21 01:49:26;;;;;;;;;;;;;;;21.18;100.00;99884.41;4994557;28;19980;-72
2021/06/21 01:51:57;;;;;;;;;;;;;;;21.18;100.00;99885.25;4993888;28;19925;-73
2021/06/21 01:54:25;;;;;;;;;;;;;;;21.17;100.00;99891.00;4993943;28;19926;-72
2021/06/21 01:56:52;;;;;;;;;;;;;;;21.18;100.00;99893.53;5008828;28;19960;-74
2021/06/21 01:59:18;;;;;;;;;;;;;;;21.18;100.00;99892.69;4993838;28;19996;-73
2021/06/21 02:01:46;;;;;;;;;;;;;;;21.19;100.00;99888.84;4992564;28;19972;-72
2021/06/21 02:04:14;;;;;;;;;;;;;;;21.16;100.00;99887.38;4993787;28;19926;-73
2021/06/21 02:06:41;;;;;;;;;;;;;;;21.19;100.00;99888.84;4993898;28;19926;-73
2021/06/21 02:09:09;;;;;;;;;;;;;;;21.19;100.00;99888.84;4993869;28;19989;-72
2021/06/21 02:11:35;;;;;;;;;;;;;;;21.17;100.00;99894.59;5008798;28;19933;-73
2021/06/21 02:14:02;;;;;;;;;;;;;;;21.18;100.00;99899.06;4993867;28;19965;-73
2021/06/21 02:16:29;;;;;;;;;;;;;;;21.23;100.00;99910.31;4975739;28;19972;-73
2021/06/21 02:18:55;;;;;;;;;;;;;;;21.26;100.00;99913.69;4993725;28;20075;-72
2021/06/21 02:21:23;;;;;;;;;;;;;;;21.26;100.00;99910.91;4975691;28;19999;-72
2021/06/21 02:23:50;;;;;;;;;;;;;;;21.31;100.00;99908.38;4993599;28;19930;-72
2021/06/21 02:26:18;;;;;;;;;;;;;;;21.29;100.00;99905.00;4993423;28;19980;-72
2021/06/21 02:28:45;;;;;;;;;;;;;;;21.29;100.00;99905.00;4993430;28;19969;-72
2021/06/21 02:31:12;;;;;;;;;;;;;;;21.30;100.00;99909.41;4993496;28;20507;-72
2021/06/21 02:33:38;;;;;;;;;;;;;;;21.33;100.00;99909.84;4992609;28;19961;-73
2021/06/21 02:36:05;;;;;;;;;;;;;;;21.36;100.00;99905.81;4993271;28;19981;-72
2021/06/21 02:38:32;;;;;;;;;;;;;;;21.39;100.00;99909.00;5008138;28;19969;-72
2021/06/21 02:40:58;;;;;;;;;;;;;;;21.40;100.00;99918.94;4993372;28;19926;-72
2021/06/21 02:43:26;;;;;;;;;;;;;;;21.41;100.00;99923.41;4992423;28;19933;-72
2021/06/21 02:45:52;;;;;;;;;;;;;;;21.43;100.00;99914.91;4992871;28;19988;-72
2021/06/21 02:48:19;;;;;;;;;;;;;;;21.43;100.00;99916.84;4993155;28;19926;-73
2021/06/21 02:50:48;;;;;;;;;;;;;;;21.42;100.00;99921.53;4993083;28;19969;-73
2021/06/21 02:53:18;;;;;;;;;;;;;;;21.37;100.00;99911.13;4992731;28;20397;-73
2021/06/21 02:55:47;;;;;;;;;;;;;;;21.29;100.00;99908.59;5007777;28;20288;-73
2021/06/21 02:58:15;;;;;;;;;;;;;;;21.24;100.00;99891.81;4993044;28;19976;-72
2021/06/21 03:00:43;;;;;;;;;;;;;;;21.19;100.00;99886.97;4992893;28;20424;-73
2021/06/21 03:03:10;;;;;;;;;;;;;;;21.10;100.00;99910.31;5007809;28;19994;-72
2021/06/21 03:05:37;;;;;;;;;;;;;;;21.03;100.00;99920.50;4992667;28;19933;-73
2021/06/21 03:08:04;;;;;;;;;;;;;;;20.95;100.00;99918.81;4992484;28;19980;-73
2021/06/21 03:10:32;;;;;;;;;;;;;;;20.91;100.00;99923.03;4992697;28;20009;-72
2021/06/21 03:12:58;;;;;;;;;;;;;;;20.89;100.00;99922.41;4992662;28;19929;-72
2021/06/21 03:15:26;;;;;;;;;;;;;;;20.82;100.00;99952.75;4992284;28;19961;-72
2021/06/21 03:17:56;;;;;;;;;;;;;;;20.75;100.00;100078.72;4992630;28;20413;-71
2021/06/21 03:20:23;;;;;;;;;;;;;;;20.86;100.00;100074.53;4992342;28;19929;-72
2021/06/21 03:22:49;;;;;;;;;;;;;;;21.00;100.00;100039.53;4992439;28;19972;-72
2021/06/21 03:25:16;;;;;;;;;;;;;;;21.09;100.00;100065.88;4992203;28;19984;-72
2021/06/21 03:27:42;;;;;;;;;;;;;;;21.12;100.00;100035.09;4992055;28;19980;-71
2021/06/21 03:30:11;;;;;;;;;;;;;;;21.13;100.00;100045.09;4992263;28;19926;-72
2021/06/21 03:32:41;;;;;;;;;;;;;;;21.12;100.00;100067.38;4991675;28;19985;-72
2021/06/21 03:35:10;;;;;;;;;;;;;;;21.13;100.00;100042.31;4992567;28;19926;-72
2021/06/21 03:37:37;;;;;;;;;;;;;;;21.13;100.00;100030.44;5007228;28;19996;-72
2021/06/21 03:40:03;;;;;;;;;;;;;;;21.09;100.00;100034.69;4992554;28;19929;-72
2021/06/21 03:42:30;;;;;;;;;;;;;;;21.09;100.00;100012.63;4991018;28;19961;-72
2021/06/21 03:44:56;;;;;;;;;;;;;;;21.11;100.00;100000.31;4992834;28;19980;-72
2021/06/21 03:47:22;;;;;;;;;;;;;;;21.01;100.00;99997.94;4992200;28;19984;-71
2021/06/21 03:49:49;;;;;;;;;;;;;;;21.00;100.00;99992.66;4992259;28;19930;-71
2021/06/21 03:52:17;;;;;;;;;;;;;;;21.01;100.00;99977.81;4992519;28;19994;-71
2021/06/21 03:54:44;;;;;;;;;;;;;;;20.95;100.00;99979.50;4990899;28;20301;-71
2021/06/21 03:57:10;;;;;;;;;;;;;;;20.95;100.00;99979.50;4994558;28;19930;-71
2021/06/21 03:59:37;;;;;;;;;;;;;;;21.02;100.00;99960.19;4995045;28;19980;-71
2021/06/21 04:02:04;;;;;;;;;;;;;;;21.06;100.00;99956.78;4991761;28;20337;-71
2021/06/21 04:04:30;;;;;;;;;;;;;;;21.09;100.00;99952.75;4991847;28;19925;-74
2021/06/21 04:06:57;;;;;;;;;;;;;;;21.17;100.00;99943.41;4992741;28;19926;-72
2021/06/21 04:09:24;;;;;;;;;;;;;;;21.22;100.00;99936.19;5002551;28;19929;-72
2021/06/21 04:11:51;;;;;;;;;;;;;;;21.29;100.00;99929.81;4991692;28;20415;-72
2021/06/21 04:14:17;;;;;;;;;;;;;;;21.33;100.00;99925.56;4991566;28;19926;-72
2021/06/21 04:16:44;;;;;;;;;;;;;;;21.36;100.00;99919.63;4991803;28;20392;-72
2021/06/21 04:19:10;;;;;;;;;;;;;;;21.35;100.00;99912.38;4991914;28;19926;-73
2021/06/21 04:21:36;;;;;;;;;;;;;;;21.34;100.00;99911.56;4991147;28;20373;-72
2021/06/21 04:24:03;;;;;;;;;;;;;;;21.39;100.00;99905.38;4994819;28;19938;-72
2021/06/21 04:26:30;;;;;;;;;;;;;;;21.47;100.00;99905.16;5009822;28;19967;-72
2021/06/21 04:28:57;;;;;;;;;;;;;;;21.49;100.00;99896.66;5008917;28;19948;-71
2021/06/21 04:31:23;;;;;;;;;;;;;;;21.56;100.00;99870.72;4991727;28;19969;-71
2021/06/21 04:33:49;;;;;;;;;;;;;;;21.63;100.00;99875.41;4996994;28;19929;-72
2021/06/21 04:36:16;;;;;;;;;;;;;;;21.66;100.00;99867.53;4994598;28;19926;-72
2021/06/21 04:38:42;;;;;;;;;;;;;;;21.70;100.00;99876.22;5009961;28;19966;-72
2021/06/21 04:41:08;;;;;;;;;;;;;;;21.67;100.00;99874.75;5010067;28;19956;-72
2021/06/21 04:43:36;;;;;;;;;;;;;;;21.68;100.00;99868.16;5006689;28;19937;-72
2021/06/21 04:46:03;;;;;;;;;;;;;;;21.64;100.00;99861.38;5000885;28;20001;-72
2021/06/21 04:48:30;;;;;;;;;;;;;;;21.65;100.00;99854.78;5000842;28;19981;-72
2021/06/21 04:50:56;;;;;;;;;;;;;;;21.66;100.00;99841.81;4990899;28;19972;-72
2021/06/21 04:53:23;;;;;;;;;;;;;;;21.71;100.00;99840.13;4991359;28;19930;-72
2021/06/21 04:55:49;;;;;;;;;;;;;;;21.72;100.00;99827.13;4990074;28;20374;-72
2021/06/21 04:58:15;;;;;;;;;;;;;;;21.77;100.00;99823.69;4990934;28;20046;-73
2021/06/21 05:00:44;;;;;;;;;;;;;;;21.79;100.00;99825.19;4992151;28;22066;-73
2021/06/21 05:03:10;;;;;;;;;;;;;;;21.76;100.00;99825.63;5009984;28;20355;-73
2021/06/21 05:05:37;;;;;;;;;;;;;;;21.73;100.00;99821.41;5000130;28;20049;-72
2021/06/21 05:08:04;;;;;;;;;;;;;;;21.63;100.00;99820.19;4996391;28;19932;-71
2021/06/21 05:10:30;;;;;;;;;;;;;;;21.64;100.00;99819.13;4994732;28;20039;-72
2021/06/21 05:12:56;;;;;;;;;;;;;;;21.70;100.00;99816.31;4997189;28;19980;-73
2021/06/21 05:15:23;;;;;;;;;;;;;;;21.72;100.00;99810.56;5003098;28;19937;-73
2021/06/21 05:17:50;;;;;;;;;;;;;;;21.78;100.00;99804.19;4993695;28;19926;-71
2021/06/21 05:20:17;;;;;;;;;;;;;;;21.69;100.00;99811.03;5002429;28;19925;-71
2021/06/21 05:22:43;;;;;;;;;;;;;;;21.64;100.00;99808.06;4995171;28;19988;-71
2021/06/21 05:25:10;;;;;;;;;;;;;;;21.66;100.00;99800.41;5007771;28;20460;-73
2021/06/21 05:27:36;;;;;;;;;;;;;;;21.69;100.00;99788.94;4978533;28;19933;-73
2021/06/21 05:30:04;;;;;;;;;;;;;;;21.74;100.00;99783.59;4994705;28;19965;-71
2021/06/21 05:32:30;;;;;;;;;;;;;;;21.81;100.00;99778.03;4994851;28;19969;-70
2021/06/21 05:34:57;;;;;;;;;;;;;;;21.88;100.00;99760.31;4995490;28;20389;-70
2021/06/21 05:37:24;;;;;;;;;;;;;;;21.97;100.00;99749.03;4991018;28;19988;-70
2021/06/21 05:39:50;;;;;;;;;;;;;;;21.99;100.00;99750.47;4982233;28;20372;-70
2021/06/21 05:42:18;;;;;;;;;;;;;;;22.07;100.00;99746.59;4990493;28;20024;-70
2021/06/21 05:44:44;;;;;;;;;;;;;;;22.14;100.00;99739.13;4992498;28;19926;-70
2021/06/21 05:47:10;;;;;;;;;;;;;;;22.27;100.00;99731.78;4993291;28;19981;-70
2021/06/21 05:49:37;;;;;;;;;;;;;;;22.23;100.00;99737.78;4992285;28;19926;-70
2021/06/21 05:52:05;;;;;;;;;;;;;;;22.28;100.00;99733.47;4988467;28;19941;-70
2021/06/21 05:54:31;;;;;;;;;;;;;;;22.40;100.00;99738.06;4991243;28;20261;-70
2021/06/21 05:56:58;;;;;;;;;;;;;;;22.59;100.00;99740.03;4991917;28;20313;-69
2021/06/21 05:59:24;;;;;;;;;;;;;;;22.77;100.00;99741.97;5022248;28;19977;-70
2021/06/21 06:01:50;;;;;;;;;;;;;;;22.88;100.00;99739.28;5012008;28;19933;-70
2021/06/21 06:04:16;;;;;;;;;;;;;;;22.96;100.00;99745.63;4999675;28;20304;-70
2021/06/21 06:06:43;;;;;;;;;;;;;;;23.04;100.00;99737.84;4986717;28;19934;-70
2021/06/21 06:09:10;;;;;;;;;;;;;;;23.11;100.00;99754.34;4994029;28;19932;-70
2021/06/21 06:11:37;;;;;;;;;;;;;;;23.16;100.00;99745.41;4993430;28;20000;-70
2021/06/21 06:14:03;;;;;;;;;;;;;;;23.16;100.00;99765.63;4992398;28;20308;-70
2021/06/21 06:16:29;;;;;;;;;;;;;;;23.22;100.00;99775.78;4993492;28;19926;-71
2021/06/21 06:18:56;;;;;;;;;;;;;;;23.23;100.00;99782.97;5006011;28;19926;-70
2021/06/21 06:21:24;;;;;;;;;;;;;;;23.36;100.00;99793.06;5013064;28;19929;-70
2021/06/21 06:23:51;;;;;;;;;;;;;;;23.60;100.00;99789.56;5007508;28;19945;-71
2021/06/21 06:26:18;;;;;;;;;;;;;;;24.01;100.00;99799.91;5013067;28;19972;-70
2021/06/21 06:28:44;;;;;;;;;;;;;;;24.65;100.00;99791.00;4996055;28;19957;-71
2021/06/21 06:31:11;;;;;;;;;;;;;;;24.96;100.00;99794.50;4992644;28;20441;-70
2021/06/21 06:33:37;;;;;;;;;;;;;;;25.44;100.00;99786.97;5007839;28;19980;-70
2021/06/21 06:36:04;;;;;;;;;;;;;;;25.66;100.00;99797.41;5010750;28;19932;-71
2021/06/21 06:38:31;;;;;;;;;;;;;;;25.93;100.00;99803.19;5011022;28;20013;-71
2021/06/21 06:40:58;;;;;;;;;;;;;;;26.02;100.00;99798.09;4996828;28;19925;-70
2021/06/21 06:43:26;;;;;;;;;;;;;;;26.16;100.00;99801.44;4992238;28;20302;-73
2021/06/21 06:45:52;;;;;;;;;;;;;;;26.31;100.00;99811.97;4990975;28;20345;-73
2021/06/21 06:48:18;;;;;;;;;;;;;;;26.29;100.00;99814.19;4992310;28;19926;-73
2021/06/21 06:50:44;;;;;;;;;;;;;;;26.32;100.00;99820.06;4994018;28;19965;-73
2021/06/21 06:53:11;;;;;;;;;;;;;;;26.13;100.00;99830.56;4992854;28;19926;-73
2021/06/21 06:58:21;;;;;;;;;;;;;;;25.77;100.00;99820.69;4993033;28;19926;-72
2021/06/21 07:00:49;;;;;;;;;;;;;;;25.47;100.00;99825.34;5010915;28;19961;-73
2021/06/21 07:03:15;;;;;;;;;;;;;;;25.39;100.00;99842.41;5011939;28;20041;-72
2021/06/21 07:05:42;;;;;;;;;;;;;;;25.62;100.00;99846.22;5010178;28;19930;-73
2021/06/21 07:08:09;;;;;;;;;;;;;;;25.84;100.00;99843.59;5012060;28;19925;-73
2021/06/21 07:10:35;;;;;;;;;;;;;;;25.86;100.00;99838.66;4996813;28;19926;-72
2021/06/21 07:13:01;;;;;;;;;;;;;;;26.37;100.00;99838.81;4993631;28;20385;-71
2021/06/21 07:15:27;;;;;;;;;;;;;;;26.68;100.00;99831.81;4992079;28;19949;-72
2021/06/21 07:17:55;;;;;;;;;;;;;;;26.84;100.00;99830.13;4993283;28;19926;-72
2021/06/21 07:20:21;;;;;;;;;;;;;;;26.84;100.00;99832.94;4992244;28;20015;-71
2021/06/21 07:22:48;;;;;;;;;;;;;;;27.29;100.00;99842.22;5003576;28;19949;-70
2021/06/21 07:25:14;;;;;;;;;;;;;;;27.91;100.00;99840.25;5002140;28;19926;-69
2021/06/21 07:27:40;;;;;;;;;;;;;;;28.51;100.00;99835.59;4997097;28;20010;-69
2021/06/21 07:30:07;;;;;;;;;;;;;;;28.48;100.00;99841.69;5011114;28;20382;-69
2021/06/21 07:32:34;;;;;;;;;;;;;;;28.62;100.00;99833.75;5004503;28;19969;-70
2021/06/21 07:35:01;;;;;;;;;;;;;;;28.79;100.00;99830.81;4981839;28;19980;-70
2021/06/21 07:37:28;;;;;;;;;;;;;;;29.26;100.00;99831.16;4994067;28;20012;-70
2021/06/21 07:39:54;;;;;;;;;;;;;;;29.61;100.00;99832.44;5011287;28;19969;-70
2021/06/21 07:42:20;;;;;;;;;;;;;;;30.21;100.00;99836.59;5006790;28;19977;-72
2021/06/21 07:44:46;;;;;;;;;;;;;;;30.85;100.00;99828.81;5008091;28;19957;-71
2021/06/21 07:47:13;;;;;;;;;;;;;;;30.92;100.00;99830.47;4999381;28;20291;-71
2021/06/21 07:49:39;;;;;;;;;;;;;;;31.09;100.00;99828.22;4992056;28;19968;-71
2021/06/21 07:52:07;;;;;;;;;;;;;;;31.04;100.00;99826.28;4990965;28;20536;-71
2021/06/21 07:54:34;;;;;;;;;;;;;;;31.39;100.00;99830.09;4994273;28;19929;-71
2021/06/21 07:57:00;;;;;;;;;;;;;;;30.91;100.00;99837.19;4991350;28;19964;-71
2021/06/21 07:59:26;;;;;;;;;;;;;;;30.72;100.00;99840.56;5009151;28;20079;-71
2021/06/21 08:01:53;;;;;;;;;;;;;;;30.93;100.00;99843.34;5002628;28;20020;-71
2021/06/21 08:04:19;;;;;;;;;;;;;;;31.16;100.00;99837.19;4999288;28;19926;-71
2021/06/21 08:06:45;;;;;;;;;;;;;;;31.09;100.00;99841.41;4990702;28;20021;-70
2021/06/21 08:09:13;;;;;;;;;;;;;;;31.80;100.00;99828.28;4998826;28;19965;-71
2021/06/21 08:11:39;;;;;;;;;;;;;;;31.54;100.00;99828.38;4999453;28;19932;-71
2021/06/21 08:14:05;;;;;;;;;;;;;;;30.68;100.00;99833.84;4991905;28;20013;-71
2021/06/21 08:16:32;;;;;;;;;;;;;;;30.71;100.00;99839.72;4994783;28;20456;-70
2021/06/21 08:18:58;;;;;;;;;;;;;;;30.68;100.00;99840.28;4988729;28;19981;-71
2021/06/21 08:21:25;;;;;;;;;;;;;;;31.08;100.00;99843.38;4993722;28;19933;-71
2021/06/21 08:23:53;;;;;;;;;;;;;;;31.51;100.00;99835.41;4994246;28;20436;-71
2021/06/21 08:26:20;;;;;;;;;;;;;;;32.25;99.41;99831.16;4992695;28;19968;-71
2021/06/21 08:28:47;;;;;;;;;;;;;;;32.45;94.05;99839.41;4990541;28;19926;-71
2021/06/21 08:31:13;;;;;;;;;;;;;;;31.76;95.92;99847.66;4994161;28;19932;-71
2021/06/21 08:33:39;;;;;;;;;;;;;;;31.50;99.21;99844.91;5004040;28;19926;-72
2021/06/21 08:36:06;;;;;;;;;;;;;;;31.24;96.15;99848.94;4995631;28;19926;-70
2021/06/21 08:38:33;;;;;;;;;;;;;;;31.54;99.86;99851.63;4992263;28;19925;-73
2021/06/21 08:40:59;;;;;;;;;;;;;;;31.86;93.98;99850.41;4994709;28;20396;-72
2021/06/21 08:43:26;;;;;;;;;;;;;;;31.89;95.95;99847.03;4997284;28;19977;-72
2021/06/21 08:45:53;;;;;;;;;;;;;;;32.14;89.82;99856.44;4996021;28;19987;-71
2021/06/21 08:48:20;;;;;;;;;;;;;;;32.95;86.69;99850.56;5006524;28;20359;-71
2021/06/21 08:50:47;;;;;;;;;;;;;;;32.95;86.98;99844.06;5013291;28;19980;-71
2021/06/21 08:53:13;;;;;;;;;;;;;;;31.88;89.35;99841.69;4994986;28;19962;-71
2021/06/21 08:55:39;;;;;;;;;;;;;;;32.25;88.13;99840.41;4994432;28;20021;-72
2021/06/21 08:58:06;;;;;;;;;;;;;;;32.57;88.37;99843.84;4995743;28;20428;-73
2021/06/21 09:00:34;;;;;;;;;;;;;;;32.07;87.38;99841.91;5009738;28;19979;-70
2021/06/21 09:03:02;;;;;;;;;;;;;;;32.13;91.38;99846.34;5006794;28;19953;-71
2021/06/21 09:05:31;;;;;;;;;;;;;;;32.55;86.82;99856.19;5006618;28;19944;-71
2021/06/21 09:08:00;;;;;;;;;;;;;;;32.49;86.86;99853.72;4994823;28;20021;-71
2021/06/21 09:10:28;;;;;;;;;;;;;;;33.11;85.32;99854.06;4998946;28;20308;-72
2021/06/21 09:13:02;;;;;;;;;;;;;;;32.44;85.95;99854.56;4994716;28;20298;-70
2021/06/21 09:15:30;;;;;;;;;;;;;;;32.67;87.74;99847.38;4996901;28;19926;-71
2021/06/21 09:17:58;;;;;;;;;;;;;;;33.56;83.03;99853.03;4994705;28;19957;-71
2021/06/21 09:20:24;;;;;;;;;;;;;;;34.26;80.58;99848.72;5006064;28;19926;-71
2021/06/21 09:22:53;;;;;;;;;;;;;;;34.86;71.55;99848.94;4994177;28;20385;-71
2021/06/21 09:25:22;;;;;;;;;;;;;;;33.05;77.21;99856.03;4993932;28;19977;-70
2021/06/21 09:27:53;;;;;;;;;;;;;;;33.22;80.79;99854.78;5005599;28;19952;-70
2021/06/21 09:30:20;;;;;;;;;;;;;;;33.57;76.94;99851.84;5012529;28;19964;-70
2021/06/21 09:32:47;;;;;;;;;;;;;;;33.42;73.03;99845.31;5000457;28;20024;-70
2021/06/21 09:35:33;;;;;;;;;;;;;;;32.77;75.07;99843.69;5011740;28;19981;-70
2021/06/21 09:38:01;;;;;;;;;;;;;;;32.45;74.78;99836.59;4999920;28;20029;-70
2021/06/21 09:40:29;;;;;;;;;;;;;;;32.98;74.80;99843.47;4996765;28;19972;-69
2021/06/21 09:42:55;;;;;;;;;;;;;;;32.64;76.47;99845.16;4998366;28;19993;-70
2021/06/21 09:45:22;;;;;;;;;;;;;;;32.47;77.47;99847.53;4992380;28;19925;-71
2021/06/21 09:47:48;;;;;;;;;;;;;;;32.67;73.44;99838.09;4995155;28;19968;-70
2021/06/21 09:50:15;;;;;;;;;;;;;;;33.56;71.46;99836.16;4996995;28;19933;-72
2021/06/21 09:52:46;;;;;;;;;;;;;;;33.94;66.69;99841.84;4993725;28;19926;-71
2021/06/21 09:55:19;;;;;;;;;;;;;;;33.21;66.79;99842.69;4993773;28;20363;-72
2021/06/21 09:57:46;;;;;;;;;;;;;;;32.52;72.62;99848.34;4993743;28;19926;-70
2021/06/21 10:00:13;;;;;;;;;;;;;;;33.19;71.37;99844.97;4998295;28;19961;-71
2021/06/21 10:02:39;;;;;;;;;;;;;;;33.92;69.80;99846.97;5012642;28;20016;-71
2021/06/21 10:05:07;;;;;;;;;;;;;;;33.71;68.09;99844.38;5012376;28;19936;-71
2021/06/21 10:07:34;;;;;;;;;;;;;;;33.58;66.10;99845.09;4995379;28;20131;-70
2021/06/21 10:10:01;;;;;;;;;;;;;;;33.56;64.85;99844.59;5007570;28;19929;-70
2021/06/21 10:12:29;;;;;;;;;;;;;;;33.25;66.68;99842.97;5013251;28;20464;-71
2021/06/21 10:14:56;;;;;;;;;;;;;;;32.95;66.16;99842.13;5011427;28;19967;-71
2021/06/21 10:17:22;;;;;;;;;;;;;;;32.84;65.74;99846.16;5013255;28;19968;-70
2021/06/21 10:19:48;;;;;;;;;;;;;;;32.96;63.54;99849.41;5011459;28;19956;-71
2021/06/21 10:22:15;;;;;;;;;;;;;;;33.12;63.77;99850.06;4997689;28;20369;-71
2021/06/21 10:24:42;;;;;;;;;;;;;;;31.55;70.10;99858.94;4998102;28;19953;-70
2021/06/21 10:27:08;;;;;;;;;;;;;;;31.64;74.11;99861.16;5012761;28;19925;-70
2021/06/21 10:29:37;;;;;;;;;;;;;;;31.55;72.88;99853.31;5002803;28;19938;-70
2021/06/21 10:32:05;;;;;;;;;;;;;;;31.37;78.11;99853.94;4993525;28;20408;-70
2021/06/21 10:34:32;;;;;;;;;;;;;;;31.60;72.44;99851.63;4993429;28;20457;-70
2021/06/21 10:36:59;;;;;;;;;;;;;;;31.91;72.95;99851.50;5004950;28;19926;-70
2021/06/21 10:39:26;;;;;;;;;;;;;;;31.51;73.60;99866.25;4992867;28;20309;-71
2021/06/21 10:42:11;;;;;;;;;;;;;;;31.82;71.74;99852.13;4993988;28;20378;-71
2021/06/21 10:44:39;;;;;;;;;;;;;;;31.82;73.81;99849.31;4992999;28;19979;-71
2021/06/21 10:47:20;;;;;;;;;;;;;;;31.79;74.43;99857.44;5007218;28;20060;-71
2021/06/21 10:49:53;;;;;;;;;;;;;;;31.00;72.59;99849.50;5012452;28;19965;-70
2021/06/21 10:52:36;;;;;;;;;;;;;;;30.82;73.46;99851.75;4995964;28;20041;-69
2021/06/21 10:55:21;;;;;;;;;;;;;;;30.30;74.12;99855.63;4999498;28;19989;-73
2021/06/21 10:57:47;;;;;;;;;;;;;;;30.51;74.05;99857.34;4999054;28;20136;-72
2021/06/21 11:00:16;;;;;;;;;;;;;;;30.71;77.22;99850.09;5002843;28;19932;-73
2021/06/21 11:02:43;;;;;;;;;;;;;;;30.71;74.16;99850.09;5003786;28;20017;-72
2021/06/21 11:05:10;;;;;;;;;;;;;;;31.33;78.24;99850.03;4998832;28;19967;-73
2021/06/21 11:07:36;;;;;;;;;;;;;;;32.03;72.08;99846.41;4992668;28;20345;-73
2021/06/21 11:10:06;;;;;;;;;;;;;;;31.59;72.87;99847.13;5024735;28;19948;-72
2021/06/21 11:12:37;;;;;;;;;;;;;;;31.73;72.79;99845.44;4996862;28;19972;-72
2021/06/21 11:15:14;;;;;;;;;;;;;;;31.75;72.12;99840.38;4991945;28;20428;-73
2021/06/21 11:17:56;;;;;;;;;;;;;;;31.77;70.16;99838.13;4990675;28;19935;-73
2021/06/21 11:20:27;;;;;;;;;;;;;;;31.76;71.68;99844.00;4989676;28;20404;-73
2021/06/21 11:22:58;;;;;;;;;;;;;;;31.78;71.36;99845.41;4991648;28;19980;-73
2021/06/21 11:25:25;;;;;;;;;;;;;;;32.49;73.49;99843.31;4975058;28;19926;-73
2021/06/21 11:27:52;;;;;;;;;;;;;;;33.19;62.92;99839.34;4981158;28;19926;-72
2021/06/21 11:30:22;;;;;;;;;;;;;;;34.27;65.21;99841.94;4991142;28;19930;-73
2021/06/21 11:32:53;;;;;;;;;;;;;;;34.35;59.81;99844.94;4991677;28;20012;-73
2021/06/21 11:35:40;;;;;;;;;;;;;;;34.44;58.13;99836.63;5004146;28;19953;-72
2021/06/21 11:38:20;;;;;;;;;;;;;;;34.37;59.43;99844.66;5009707;28;20412;-74
2021/06/21 11:40:46;;;;;;;;;;;;;;;34.03;58.89;99849.34;5000420;28;19944;-74
2021/06/21 11:43:16;;;;;;;;;;;;;;;34.16;59.14;99850.53;4992202;28;19969;-74
2021/06/21 11:45:56;;;;;;;;;;;;;;;33.59;59.30;99835.53;4998573;28;20404;-74
2021/06/21 11:48:27;;;;;;;;;;;;;;;33.45;62.29;99839.06;4992682;28;19926;-75
2021/06/21 11:50:55;;;;;;;;;;;;;;;33.34;61.21;99837.50;4991994;28;19925;-74
2021/06/21 11:53:23;;;;;;;;;;;;;;;34.25;60.20;99832.97;4999686;28;19933;-74
2021/06/21 11:55:49;;;;;;;;;;;;;;;34.50;57.62;99826.13;4991424;28;19936;-72
2021/06/21 11:58:23;;;;;;;;;;;;;;;34.79;57.74;99825.91;4992263;28;19980;-72
2021/06/21 12:00:49;;;;;;;;;;;;;;;34.08;61.04;99828.72;4992431;28;20460;-72
2021/06/21 12:03:19;;;;;;;;;;;;;;;33.82;64.37;99843.16;5004294;28;20251;-78
2021/06/21 12:05:52;;;;;;;;;;;;;;;33.08;63.88;99834.13;4992048;28;19933;-69
2021/06/21 12:08:20;;;;;;;;;;;;;;;32.52;69.63;99834.31;4995098;28;19933;-70
2021/06/21 12:10:46;;;;;;;;;;;;;;;33.21;71.44;99836.22;5008474;28;19929;-70
2021/06/21 12:13:12;;;;;;;;;;;;;;;33.60;61.56;99840.84;5007317;28;19980;-70
2021/06/21 12:15:41;;;;;;;;;;;;;;;34.66;62.86;99830.38;5003428;28;19980;-70
2021/06/21 12:18:07;;;;;;;;;;;;;;;34.98;57.52;99836.31;4995756;28;19991;-69
2021/06/21 12:20:34;;;;;;;;;;;;;;;34.07;58.64;99838.28;4995300;28;19929;-69
2021/06/21 12:23:02;;;;;;;;;;;;;;;33.07;62.16;99835.25;4995503;28;19957;-70
2021/06/21 12:25:30;;;;;;;;;;;;;;;33.29;64.36;99821.53;4994849;28;19930;-69
2021/06/21 12:28:10;;;;;;;;;;;;;;;34.09;61.33;99821.09;4995265;28;19926;-70
2021/06/21 12:30:37;;;;;;;;;;;;;;;34.60;59.26;99819.50;4995972;28;19973;-70
2021/06/21 12:33:18;;;;;;;;;;;;;;;34.97;55.91;99823.34;5006185;28;19934;-70
2021/06/21 12:36:00;;;;;;;;;;;;;;;34.59;57.02;99820.63;5012325;28;20475;-70
2021/06/21 12:38:27;;;;;;;;;;;;;;;33.95;57.65;99827.47;5012976;28;19979;-70
2021/06/21 12:40:55;;;;;;;;;;;;;;;34.36;61.92;99814.81;5014822;28;20008;-69
2021/06/21 12:43:21;;;;;;;;;;;;;;;34.41;55.31;99820.38;4998346;28;19961;-70
2021/06/21 12:45:47;;;;;;;;;;;;;;;33.97;58.53;99819.59;4994948;28;19961;-70